Time;durP1;ratioP1;P1;durP2;ratioP2;P2;SDS_P1;SDS_P2;PMS_P1;PMS_P2;Temp;Humidity;BMP_temperature;BMP_pressure;BME280_temperature;BME280_humidity;BME280_pressure;Samples;Min_cycle;Max_cycle;Signal;HPM_P1;HPM_P2
2022/11/07 00:02:06;;;;;;;;;;;;;;;10.29;100.00;100084.31;4498161;31;34968;-72
2022/11/07 00:04:53;;;;;;;;;;;;;;;10.69;100.00;100092.97;4511388;31;36267;-72
2022/11/07 00:07:39;;;;;;;;;;;;;;;11.00;100.00;100081.44;4510938;31;34956;-71
2022/11/07 00:10:28;;;;;;;;;;;;;;;10.28;100.00;100079.94;4510806;31;33747;-73
2022/11/07 00:13:14;;;;;;;;;;;;;;;9.24;100.00;100095.25;4498015;31;35368;-71
2022/11/07 00:16:02;;;;;;;;;;;;;;;8.59;100.00;100089.38;4509692;31;36253;-72
2022/11/07 00:18:48;;;;;;;;;;;;;;;9.91;100.00;100098.00;4497685;31;34809;-71
2022/11/07 00:21:35;;;;;;;;;;;;;;;10.56;100.00;100094.56;4498921;31;33717;-71
2022/11/07 00:24:21;;;;;;;;;;;;;;;10.74;100.00;100103.03;4509184;31;35026;-71
2022/11/07 00:27:09;;;;;;;;;;;;;;;10.11;100.00;100107.84;4497935;31;35209;-72
2022/11/07 00:29:56;;;;;;;;;;;;;;;9.90;100.00;100110.06;4499319;31;34568;-72
2022/11/07 00:32:42;;;;;;;;;;;;;;;10.34;100.00;100113.56;4499899;31;34909;-71
2022/11/07 00:35:28;;;;;;;;;;;;;;;10.69;100.00;100114.09;4512359;31;34874;-71
2022/11/07 00:38:15;;;;;;;;;;;;;;;10.83;100.00;100114.13;4500619;31;34856;-72
2022/11/07 00:41:02;;;;;;;;;;;;;;;11.08;100.00;100110.91;4499478;31;34737;-71
2022/11/07 00:43:49;;;;;;;;;;;;;;;11.25;100.00;100108.41;4498568;31;33979;-71
2022/11/07 00:46:36;;;;;;;;;;;;;;;11.05;100.00;100114.28;4508774;31;34958;-72
2022/11/07 00:49:22;;;;;;;;;;;;;;;11.22;100.00;100111.75;4512172;31;35165;-71
2022/11/07 00:52:09;;;;;;;;;;;;;;;11.23;100.00;100107.06;4512355;31;34876;-72
2022/11/07 00:54:55;;;;;;;;;;;;;;;11.25;100.00;100111.13;4489469;31;34016;-72
2022/11/07 00:57:41;;;;;;;;;;;;;;;11.32;100.00;100109.91;4511967;31;35134;-72
2022/11/07 01:00:29;;;;;;;;;;;;;;;11.32;100.00;100102.50;4511979;31;34997;-71
2022/11/07 01:06:20;;;;;;;;;;;;;;;10.82;100.00;100107.03;4505740;31;34848;-72
2022/11/07 01:09:07;;;;;;;;;;;;;;;11.34;100.00;100104.94;4500405;31;32810;-71
2022/11/07 01:11:54;;;;;;;;;;;;;;;10.68;100.00;100113.28;4500851;31;35617;-72
2022/11/07 01:14:40;;;;;;;;;;;;;;;9.88;100.00;100111.47;4512867;31;34809;-71
2022/11/07 01:17:26;;;;;;;;;;;;;;;9.90;100.00;100122.91;4511140;31;34128;-72
2022/11/07 01:20:12;;;;;;;;;;;;;;;9.99;100.00;100117.59;4512021;31;34892;-72
2022/11/07 01:22:59;;;;;;;;;;;;;;;9.75;100.00;100114.91;4496640;31;35253;-71
2022/11/07 01:25:45;;;;;;;;;;;;;;;10.50;100.00;100101.25;4508918;31;34846;-71
2022/11/07 01:28:38;;;;;;;;;;;;;;;10.93;100.00;100100.22;4500169;31;34828;-71
2022/11/07 01:31:25;;;;;;;;;;;;;;;10.95;100.00;100096.06;4509285;31;34587;-71
2022/11/07 01:34:10;;;;;;;;;;;;;;;11.32;100.00;100101.69;4499188;31;35266;-72
2022/11/07 01:36:56;;;;;;;;;;;;;;;11.45;100.00;100111.84;4512097;31;34543;-71
2022/11/07 01:39:43;;;;;;;;;;;;;;;11.49;100.00;100108.19;4510375;31;35024;-72
2022/11/07 01:42:29;;;;;;;;;;;;;;;11.42;100.00;100115.22;4507443;31;34800;-72
2022/11/07 01:45:24;;;;;;;;;;;;;;;11.48;100.00;100109.31;4500073;31;34518;-72
2022/11/07 01:48:10;;;;;;;;;;;;;;;11.47;100.00;100118.66;4497554;31;35490;-72
2022/11/07 01:50:56;;;;;;;;;;;;;;;11.37;100.00;100120.78;4499574;31;34077;-71
2022/11/07 01:53:42;;;;;;;;;;;;;;;11.49;100.00;100115.59;4512532;31;35140;-71
2022/11/07 01:56:29;;;;;;;;;;;;;;;11.39;100.00;100115.81;4511273;31;35283;-71
2022/11/07 01:59:18;;;;;;;;;;;;;;;11.40;100.00;100126.47;4499060;31;35641;-71
2022/11/07 02:02:06;;;;;;;;;;;;;;;11.30;100.00;100112.97;4496972;31;34099;-71
2022/11/07 02:04:57;;;;;;;;;;;;;;;11.63;100.00;100115.59;4495484;31;34416;-71
2022/11/07 02:07:43;;;;;;;;;;;;;;;11.78;100.00;100119.94;4497720;31;36162;-71
2022/11/07 02:10:29;;;;;;;;;;;;;;;11.34;100.00;100118.66;4512579;31;34834;-72
2022/11/07 02:13:23;;;;;;;;;;;;;;;11.65;100.00;100125.16;4498459;31;34634;-71
2022/11/07 02:16:09;;;;;;;;;;;;;;;10.43;100.00;100121.91;4500291;31;33672;-72
2022/11/07 02:18:55;;;;;;;;;;;;;;;9.67;100.00;100117.19;4510491;31;35181;-71
2022/11/07 02:21:48;;;;;;;;;;;;;;;10.93;100.00;100113.91;4510386;31;34869;-71
2022/11/07 02:24:34;;;;;;;;;;;;;;;11.46;100.00;100118.97;4498753;31;34928;-71
2022/11/07 02:27:21;;;;;;;;;;;;;;;11.73;100.00;100117.34;4499042;31;34959;-71
2022/11/07 02:30:15;;;;;;;;;;;;;;;11.70;100.00;100118.75;4499049;31;34687;-71
2022/11/07 02:33:01;;;;;;;;;;;;;;;11.73;100.00;100115.41;4497952;31;34711;-71
2022/11/07 02:35:49;;;;;;;;;;;;;;;11.24;100.00;100111.44;4498468;31;34948;-71
2022/11/07 02:38:36;;;;;;;;;;;;;;;11.52;100.00;100109.50;4498746;31;35784;-71
2022/11/07 02:41:23;;;;;;;;;;;;;;;11.90;100.00;100109.31;4499185;31;36119;-72
2022/11/07 02:44:10;;;;;;;;;;;;;;;11.58;100.00;100105.53;4499257;31;34568;-71
2022/11/07 02:46:55;;;;;;;;;;;;;;;11.23;100.00;100110.63;4512305;31;34191;-71
2022/11/07 02:49:42;;;;;;;;;;;;;;;11.70;100.00;100100.34;4499962;31;34914;-71
2022/11/07 02:52:28;;;;;;;;;;;;;;;11.96;100.00;100099.03;4499309;31;36136;-71
2022/11/07 02:55:14;;;;;;;;;;;;;;;11.86;100.00;100098.09;4512588;31;34978;-72
2022/11/07 02:58:00;;;;;;;;;;;;;;;11.89;100.00;100099.44;4497860;31;34064;-72
2022/11/07 03:00:46;;;;;;;;;;;;;;;11.95;100.00;100100.12;4497614;31;35799;-71
2022/11/07 03:03:33;;;;;;;;;;;;;;;11.72;100.00;100094.53;4497049;31;35118;-71
2022/11/07 03:06:21;;;;;;;;;;;;;;;12.04;100.00;100098.25;4499692;31;35700;-71
2022/11/07 03:09:08;;;;;;;;;;;;;;;11.99;100.00;100092.91;4499227;31;34106;-71
2022/11/07 03:11:54;;;;;;;;;;;;;;;11.67;100.00;100092.75;4512525;31;34538;-71
2022/11/07 03:14:40;;;;;;;;;;;;;;;11.97;100.00;100098.69;4499235;31;35737;-71
2022/11/07 03:17:27;;;;;;;;;;;;;;;11.84;100.00;100099.50;4507401;31;34894;-71
2022/11/07 03:20:13;;;;;;;;;;;;;;;11.90;100.00;100098.31;4510943;31;34852;-71
2022/11/07 03:22:59;;;;;;;;;;;;;;;11.31;100.00;100108.31;4499113;31;34511;-71
2022/11/07 03:25:46;;;;;;;;;;;;;;;11.96;100.00;100107.25;4507984;31;35283;-71
2022/11/07 03:28:32;;;;;;;;;;;;;;;11.86;100.00;100106.34;4510862;31;34954;-71
2022/11/07 03:31:18;;;;;;;;;;;;;;;12.13;100.00;100108.22;4510390;31;34177;-71
2022/11/07 03:34:04;;;;;;;;;;;;;;;12.13;100.00;100097.25;4509423;31;34503;-71
2022/11/07 03:36:51;;;;;;;;;;;;;;;12.28;100.00;100107.06;4507650;31;35118;-71
2022/11/07 03:39:37;;;;;;;;;;;;;;;12.29;100.00;100107.84;4510479;31;34895;-72
2022/11/07 03:42:24;;;;;;;;;;;;;;;12.01;100.00;100101.63;4510631;31;34019;-72
2022/11/07 03:45:12;;;;;;;;;;;;;;;12.07;100.00;100103.97;4510440;31;34669;-72
2022/11/07 03:47:58;;;;;;;;;;;;;;;12.20;100.00;100096.00;4498782;31;35232;-71
2022/11/07 03:50:45;;;;;;;;;;;;;;;12.02;100.00;100100.53;4510627;31;34460;-71
2022/11/07 03:53:31;;;;;;;;;;;;;;;12.23;100.00;100109.91;4510208;31;34669;-72
2022/11/07 03:56:19;;;;;;;;;;;;;;;11.75;100.00;100107.66;4499610;31;35369;-71
2022/11/07 03:59:06;;;;;;;;;;;;;;;12.14;100.00;100112.59;4510480;31;34712;-72
2022/11/07 04:01:54;;;;;;;;;;;;;;;11.81;100.00;100108.34;4508845;31;35685;-71
2022/11/07 04:04:40;;;;;;;;;;;;;;;11.70;100.00;100129.75;4510420;31;33838;-71
2022/11/07 04:07:26;;;;;;;;;;;;;;;11.35;100.00;100128.50;4510142;31;34877;-71
2022/11/07 04:10:12;;;;;;;;;;;;;;;12.14;100.00;100131.81;4510496;31;35222;-71
2022/11/07 04:19:08;;;;;;;;;;;;;;;12.14;100.00;100137.31;4499531;31;34880;-71
2022/11/07 04:21:55;;;;;;;;;;;;;;;12.22;100.00;100137.72;4511182;31;34895;-72
2022/11/07 04:24:49;;;;;;;;;;;;;;;11.69;100.00;100130.84;4487521;31;35206;-71
2022/11/07 04:27:42;;;;;;;;;;;;;;;11.84;100.00;100129.69;4506749;31;34968;-71
2022/11/07 04:30:29;;;;;;;;;;;;;;;11.73;100.00;100125.56;4498444;31;34511;-71
2022/11/07 04:33:15;;;;;;;;;;;;;;;12.02;100.00;100125.25;4507849;31;36071;-71
2022/11/07 04:36:01;;;;;;;;;;;;;;;11.86;100.00;100122.00;4509577;31;34775;-71
2022/11/07 04:38:51;;;;;;;;;;;;;;;11.75;100.00;100128.81;4504078;31;34084;-71
2022/11/07 04:41:37;;;;;;;;;;;;;;;11.08;100.00;100121.87;4498210;31;33599;-72
2022/11/07 04:44:24;;;;;;;;;;;;;;;11.80;100.00;100114.97;4508849;31;35196;-72
2022/11/07 04:47:10;;;;;;;;;;;;;;;11.82;100.00;100108.06;4508346;31;33846;-72
2022/11/07 04:50:04;;;;;;;;;;;;;;;11.73;100.00;100111.84;4510686;31;33797;-72
2022/11/07 04:52:52;;;;;;;;;;;;;;;12.38;100.00;100109.56;4508086;31;34949;-71
2022/11/07 04:55:41;;;;;;;;;;;;;;;12.62;100.00;100121.38;4506338;31;34731;-71
2022/11/07 04:58:27;;;;;;;;;;;;;;;12.58;100.00;100119.25;4498973;31;34848;-72
2022/11/07 05:01:14;;;;;;;;;;;;;;;12.60;100.00;100124.41;4498910;31;34992;-71
2022/11/07 05:04:02;;;;;;;;;;;;;;;12.68;100.00;100122.88;4505438;31;34672;-71
2022/11/07 05:06:50;;;;;;;;;;;;;;;12.57;100.00;100123.09;4510690;31;34992;-73
2022/11/07 05:09:36;;;;;;;;;;;;;;;11.43;100.00;100127.81;4509077;31;35741;-73
2022/11/07 05:12:24;;;;;;;;;;;;;;;11.88;100.00;100128.00;4504874;31;34222;-73
2022/11/07 05:15:10;;;;;;;;;;;;;;;11.42;100.00;100129.75;4511303;31;35835;-73
2022/11/07 05:17:57;;;;;;;;;;;;;;;11.68;100.00;100132.78;4513635;31;35888;-73
2022/11/07 05:20:44;;;;;;;;;;;;;;;12.17;100.00;100121.34;4510793;31;35164;-73
2022/11/07 05:23:31;;;;;;;;;;;;;;;12.32;100.00;100118.22;4501037;31;34092;-73
2022/11/07 05:26:18;;;;;;;;;;;;;;;12.30;100.00;100128.72;4498974;31;34958;-73
2022/11/07 05:29:07;;;;;;;;;;;;;;;12.41;100.00;100123.78;4507680;31;36255;-73
2022/11/07 05:31:54;;;;;;;;;;;;;;;11.82;100.00;100131.97;4509531;31;34913;-73
2022/11/07 05:34:40;;;;;;;;;;;;;;;11.97;100.00;100125.34;4503583;31;34143;-73
2022/11/07 05:37:34;;;;;;;;;;;;;;;12.01;100.00;100121.69;4513487;31;34948;-73
2022/11/07 05:40:29;;;;;;;;;;;;;;;11.16;100.00;100118.44;4500200;31;35945;-73
2022/11/07 05:43:20;;;;;;;;;;;;;;;10.24;100.00;100136.38;4511403;31;34743;-73
2022/11/07 05:46:20;;;;;;;;;;;;;;;9.28;100.00;100157.56;4507996;31;34070;-73
2022/11/07 05:49:11;;;;;;;;;;;;;;;10.13;100.00;100162.28;4512290;31;35727;-73
2022/11/07 05:51:57;;;;;;;;;;;;;;;10.41;100.00;100162.47;4499242;31;35243;-72
2022/11/07 05:54:45;;;;;;;;;;;;;;;10.52;100.00;100170.22;4510956;31;35457;-72
2022/11/07 05:57:33;;;;;;;;;;;;;;;10.90;100.00;100169.34;4507930;31;34672;-72
2022/11/07 06:00:20;;;;;;;;;;;;;;;11.21;100.00;100173.22;4512379;31;36091;-72
2022/11/07 06:03:07;;;;;;;;;;;;;;;11.56;100.00;100183.81;4513050;31;36127;-72
2022/11/07 06:06:02;;;;;;;;;;;;;;;11.46;100.00;100177.41;4511897;31;35743;-73
2022/11/07 06:08:58;;;;;;;;;;;;;;;10.83;100.00;100177.97;4516072;31;34641;-72
2022/11/07 06:11:48;;;;;;;;;;;;;;;10.42;100.00;100191.53;4512244;31;35784;-72
2022/11/07 06:14:34;;;;;;;;;;;;;;;10.47;100.00;100195.00;4507723;31;34855;-72
2022/11/07 06:17:32;;;;;;;;;;;;;;;10.17;100.00;100198.94;4511574;31;35763;-72
2022/11/07 06:20:21;;;;;;;;;;;;;;;9.94;100.00;100197.06;4511007;31;33836;-72
2022/11/07 06:23:09;;;;;;;;;;;;;;;8.98;100.00;100203.25;4512146;31;35723;-72
2022/11/07 06:26:02;;;;;;;;;;;;;;;8.78;100.00;100210.50;4500857;31;36025;-72
2022/11/07 06:28:54;;;;;;;;;;;;;;;8.90;100.00;100223.00;4511519;31;34203;-71
2022/11/07 06:31:50;;;;;;;;;;;;;;;8.66;100.00;100225.62;4508684;31;33878;-71
2022/11/07 06:34:49;;;;;;;;;;;;;;;8.81;100.00;100236.44;4510778;31;34297;-72
2022/11/07 06:37:36;;;;;;;;;;;;;;;9.85;100.00;100244.22;4511852;31;35320;-72
2022/11/07 06:40:23;;;;;;;;;;;;;;;10.77;100.00;100237.56;4509549;31;34600;-72
2022/11/07 06:43:13;;;;;;;;;;;;;;;11.00;100.00;100243.22;4509858;31;34088;-73
2022/11/07 06:46:07;;;;;;;;;;;;;;;11.32;100.00;100236.91;4499066;31;34886;-73
2022/11/07 06:48:58;;;;;;;;;;;;;;;11.24;100.00;100243.09;4494371;31;35264;-73
2022/11/07 06:51:47;;;;;;;;;;;;;;;11.38;100.00;100243.13;4511103;31;34928;-72
2022/11/07 06:57:34;;;;;;;;;;;;;;;10.61;100.00;100249.84;4511335;31;35625;-72
2022/11/07 07:00:20;;;;;;;;;;;;;;;10.40;100.00;100259.47;4511972;31;36167;-73
2022/11/07 07:03:09;;;;;;;;;;;;;;;10.69;100.00;100256.59;4507261;31;34946;-72
2022/11/07 07:08:53;;;;;;;;;;;;;;;11.36;100.00;100248.13;4507768;31;34473;-73
2022/11/07 07:11:43;;;;;;;;;;;;;;;11.11;100.00;100263.91;4497995;31;35687;-73
2022/11/07 07:14:30;;;;;;;;;;;;;;;10.55;100.00;100262.00;4503142;31;35744;-72
2022/11/07 07:17:17;;;;;;;;;;;;;;;10.87;100.00;100268.66;4509003;31;34124;-73
2022/11/07 07:20:06;;;;;;;;;;;;;;;11.41;100.00;100267.22;4510679;31;34511;-72
2022/11/07 07:22:54;;;;;;;;;;;;;;;11.53;100.00;100264.84;4505577;31;35313;-73
2022/11/07 07:25:51;;;;;;;;;;;;;;;9.97;100.00;100273.12;4499036;31;34333;-72
2022/11/07 07:28:40;;;;;;;;;;;;;;;10.35;100.00;100274.84;4508234;31;35039;-73
2022/11/07 07:31:30;;;;;;;;;;;;;;;11.73;100.00;100268.31;4498364;31;35507;-73
2022/11/07 07:34:18;;;;;;;;;;;;;;;11.88;100.00;100270.78;4511366;31;35294;-73
2022/11/07 07:37:11;;;;;;;;;;;;;;;11.51;100.00;100269.78;4492443;31;36191;-73
2022/11/07 07:40:09;;;;;;;;;;;;;;;11.13;100.00;100278.13;4496040;31;34060;-73
2022/11/07 07:42:56;;;;;;;;;;;;;;;11.56;100.00;100272.47;4495407;31;34681;-74
2022/11/07 07:45:44;;;;;;;;;;;;;;;11.80;100.00;100272.28;4494344;31;36084;-73
2022/11/07 07:48:32;;;;;;;;;;;;;;;11.41;100.00;100275.44;4491716;31;34487;-73
2022/11/07 07:51:19;;;;;;;;;;;;;;;11.28;100.00;100276.25;4494863;31;33657;-72
2022/11/07 07:54:10;;;;;;;;;;;;;;;11.10;100.00;100278.72;4485963;31;35384;-72
2022/11/07 07:57:00;;;;;;;;;;;;;;;11.43;100.00;100276.78;4484054;31;35913;-74
2022/11/07 07:59:50;;;;;;;;;;;;;;;11.32;100.00;100286.31;4486115;31;33177;-72
2022/11/07 08:02:37;;;;;;;;;;;;;;;10.39;100.00;100287.97;4486566;31;34576;-73
2022/11/07 08:05:26;;;;;;;;;;;;;;;10.69;100.00;100273.03;4495331;31;33239;-73
2022/11/07 08:08:16;;;;;;;;;;;;;;;10.02;100.00;100281.28;4486022;31;35982;-73
2022/11/07 08:11:07;;;;;;;;;;;;;;;10.50;100.00;100275.75;4485971;31;34300;-73
2022/11/07 08:13:57;;;;;;;;;;;;;;;10.54;100.00;100279.56;4481902;31;33882;-73
2022/11/07 08:16:47;;;;;;;;;;;;;;;10.31;100.00;100283.97;4474036;31;33470;-73
2022/11/07 08:19:35;;;;;;;;;;;;;;;10.48;100.00;100288.97;4496050;31;35594;-73
2022/11/07 08:22:22;;;;;;;;;;;;;;;10.21;100.00;100276.66;4490630;31;34894;-73
2022/11/07 08:25:09;;;;;;;;;;;;;;;10.31;100.00;100278.50;4495112;31;32436;-73
2022/11/07 08:27:57;;;;;;;;;;;;;;;10.13;100.00;100274.56;4495301;31;35009;-73
2022/11/07 08:30:44;;;;;;;;;;;;;;;10.44;100.00;100279.69;4486266;31;35692;-73
2022/11/07 08:33:32;;;;;;;;;;;;;;;10.01;100.00;100274.16;4493709;31;36094;-73
2022/11/07 08:36:19;;;;;;;;;;;;;;;10.36;100.00;100278.44;4474726;31;33399;-73
2022/11/07 08:39:07;;;;;;;;;;;;;;;10.51;100.00;100282.88;4494915;31;34862;-73
2022/11/07 08:41:55;;;;;;;;;;;;;;;10.31;100.00;100279.31;4494843;31;34845;-73
2022/11/07 08:44:42;;;;;;;;;;;;;;;10.69;100.00;100267.56;4487062;31;35361;-72
2022/11/07 08:47:29;;;;;;;;;;;;;;;10.82;100.00;100274.25;4494621;31;34539;-72
2022/11/07 08:50:20;;;;;;;;;;;;;;;11.04;100.00;100279.91;4499212;31;34317;-71
2022/11/07 08:53:07;;;;;;;;;;;;;;;11.14;100.00;100279.75;4495750;31;35148;-72
2022/11/07 08:56:06;;;;;;;;;;;;;;;11.00;100.00;100285.16;4487193;31;33853;-72
2022/11/07 08:59:03;;;;;;;;;;;;;;;11.44;100.00;100277.59;4486059;31;33486;-72
2022/11/07 09:01:49;;;;;;;;;;;;;;;11.23;100.00;100288.09;4495677;31;34473;-72
2022/11/07 09:04:56;;;;;;;;;;;;;;;11.09;100.00;100287.25;4500520;31;34566;-73
2022/11/07 09:07:43;;;;;;;;;;;;;;;11.42;100.00;100296.31;4499421;31;33625;-73
2022/11/07 09:10:33;;;;;;;;;;;;;;;11.30;100.00;100296.78;4487683;31;34319;-73
2022/11/07 09:13:22;;;;;;;;;;;;;;;12.02;100.00;100293.59;4498772;31;34666;-73
2022/11/07 09:16:18;;;;;;;;;;;;;;;11.26;100.00;100296.53;4499376;31;34710;-73
2022/11/07 09:19:10;;;;;;;;;;;;;;;11.25;100.00;100297.66;4497566;31;35532;-72
2022/11/07 09:21:58;;;;;;;;;;;;;;;11.11;100.00;100304.22;4494775;31;34812;-73
2022/11/07 09:24:45;;;;;;;;;;;;;;;11.56;100.00;100297.16;4495474;31;34970;-73
2022/11/07 09:27:31;;;;;;;;;;;;;;;10.71;100.00;100304.53;4494665;31;33708;-73
2022/11/07 09:30:18;;;;;;;;;;;;;;;11.53;100.00;100299.69;4497708;31;35335;-73
2022/11/07 09:33:05;;;;;;;;;;;;;;;10.80;100.00;100301.94;4484728;31;32964;-73
2022/11/07 09:35:52;;;;;;;;;;;;;;;10.84;100.00;100302.16;4495652;31;34274;-73
2022/11/07 09:38:39;;;;;;;;;;;;;;;10.89;100.00;100299.34;4498962;31;33627;-72
2022/11/07 09:41:34;;;;;;;;;;;;;;;10.38;100.00;100306.31;4499676;31;33462;-73
2022/11/07 09:44:21;;;;;;;;;;;;;;;10.56;100.00;100304.75;4484436;31;33512;-73
2022/11/07 09:47:18;;;;;;;;;;;;;;;10.72;100.00;100305.34;4498989;31;35024;-74
2022/11/07 09:50:09;;;;;;;;;;;;;;;10.86;100.00;100299.94;4477198;31;35348;-75
2022/11/07 09:52:57;;;;;;;;;;;;;;;11.07;100.00;100300.44;4485273;31;34455;-75
2022/11/07 09:55:50;;;;;;;;;;;;;;;11.46;100.00;100298.13;4486342;31;33551;-74
2022/11/07 09:58:46;;;;;;;;;;;;;;;11.37;100.00;100299.13;4486581;31;33290;-73
2022/11/07 10:01:32;;;;;;;;;;;;;;;11.25;100.00;100299.59;4494231;31;35830;-74
2022/11/07 10:04:20;;;;;;;;;;;;;;;11.80;100.00;100301.66;4499716;31;34449;-73
2022/11/07 10:07:20;;;;;;;;;;;;;;;10.81;100.00;100298.06;4499394;31;35003;-74
2022/11/07 10:10:15;;;;;;;;;;;;;;;10.79;100.00;100303.06;4493672;31;35837;-74
2022/11/07 10:13:22;;;;;;;;;;;;;;;10.71;100.00;100296.31;4504936;31;34901;-73
2022/11/07 10:16:37;;;;;;;;;;;;;;;10.58;100.00;100297.84;4503501;31;34837;-73
2022/11/07 10:19:35;;;;;;;;;;;;;;;10.89;100.00;100293.84;4503609;31;34005;-74
2022/11/07 10:22:28;;;;;;;;;;;;;;;11.12;100.00;100292.94;4506343;31;34934;-74
2022/11/07 10:25:26;;;;;;;;;;;;;;;10.92;100.00;100288.59;4498076;31;35278;-73
2022/11/07 10:28:16;;;;;;;;;;;;;;;11.24;100.00;100282.34;4498591;31;36183;-73
2022/11/07 10:31:03;;;;;;;;;;;;;;;10.68;100.00;100283.19;4508115;31;34447;-73
2022/11/07 10:33:52;;;;;;;;;;;;;;;10.93;100.00;100279.25;4494535;31;34480;-73
2022/11/07 10:36:40;;;;;;;;;;;;;;;10.91;100.00;100286.16;4506404;31;35154;-73
2022/11/07 10:39:31;;;;;;;;;;;;;;;11.03;100.00;100281.03;4508406;31;35624;-74
2022/11/07 10:42:22;;;;;;;;;;;;;;;11.18;100.00;100283.50;4493804;31;33692;-74
2022/11/07 10:45:12;;;;;;;;;;;;;;;11.13;100.00;100283.63;4497533;31;34929;-74
2022/11/07 10:48:01;;;;;;;;;;;;;;;10.76;100.00;100277.03;4499923;31;34547;-74
2022/11/07 10:50:51;;;;;;;;;;;;;;;11.43;100.00;100273.22;4500667;31;34798;-74
2022/11/07 10:53:41;;;;;;;;;;;;;;;11.87;100.00;100269.19;4495010;31;34012;-74
2022/11/07 10:56:31;;;;;;;;;;;;;;;11.83;100.00;100274.41;4498489;31;34385;-74
2022/11/07 10:59:26;;;;;;;;;;;;;;;11.10;100.00;100262.28;4498465;31;35983;-74
2022/11/07 11:02:41;;;;;;;;;;;;;;;10.58;100.00;100259.47;4500974;31;34879;-73
2022/11/07 11:05:41;;;;;;;;;;;;;;;11.53;100.00;100253.03;4498570;31;34127;-72
2022/11/07 11:08:34;;;;;;;;;;;;;;;10.91;100.00;100256.00;4496059;31;34389;-72
2022/11/07 11:11:30;;;;;;;;;;;;;;;10.91;100.00;100254.06;4497949;31;35100;-72
2022/11/07 11:14:20;;;;;;;;;;;;;;;11.28;100.00;100246.06;4497225;31;34922;-72
2022/11/07 11:17:22;;;;;;;;;;;;;;;11.07;100.00;100243.69;4495912;31;35042;-73
2022/11/07 11:20:40;;;;;;;;;;;;;;;11.84;100.00;100236.78;4496412;31;34605;-73
2022/11/07 11:23:30;;;;;;;;;;;;;;;10.94;100.00;100238.94;4506620;31;35187;-73
2022/11/07 11:26:38;;;;;;;;;;;;;;;11.23;100.00;100242.28;4498402;31;35747;-73
2022/11/07 11:29:38;;;;;;;;;;;;;;;11.15;100.00;100237.47;4508997;31;33990;-72
2022/11/07 11:32:30;;;;;;;;;;;;;;;11.26;100.00;100227.97;4494748;31;35407;-72
2022/11/07 11:35:32;;;;;;;;;;;;;;;10.73;100.00;100239.28;4483824;31;36043;-73
2022/11/07 11:38:36;;;;;;;;;;;;;;;10.24;100.00;100247.84;4482171;31;792098;-72
2022/11/07 11:41:32;;;;;;;;;;;;;;;10.24;100.00;100234.97;4498334;31;33690;-73
2022/11/07 11:44:33;;;;;;;;;;;;;;;10.60;100.00;100231.78;4508365;31;35958;-72
2022/11/07 11:47:32;;;;;;;;;;;;;;;11.01;100.00;100233.87;4503736;31;36099;-72
2022/11/07 11:50:27;;;;;;;;;;;;;;;11.48;100.00;100232.78;4499126;31;34789;-74
2022/11/07 11:53:15;;;;;;;;;;;;;;;10.73;100.00;100242.00;4495697;31;32869;-74
2022/11/07 11:56:06;;;;;;;;;;;;;;;10.69;100.00;100235.47;4497106;31;34718;-75
2022/11/07 11:58:58;;;;;;;;;;;;;;;10.72;100.00;100234.06;4509398;31;35062;-74
2022/11/07 12:01:58;;;;;;;;;;;;;;;10.95;100.00;100244.13;4493504;31;35530;-74
2022/11/07 12:05:04;;;;;;;;;;;;;;;11.88;100.00;100224.94;4496151;31;33988;-73
2022/11/07 12:08:12;;;;;;;;;;;;;;;11.62;100.00;100223.78;4508173;31;34942;-73
2022/11/07 12:11:08;;;;;;;;;;;;;;;11.98;100.00;100223.94;4509163;31;35934;-75
2022/11/07 12:14:12;;;;;;;;;;;;;;;10.84;100.00;100226.19;4496557;31;35449;-75
2022/11/07 12:17:04;;;;;;;;;;;;;;;10.33;100.00;100222.31;4507662;31;33814;-75
2022/11/07 12:19:54;;;;;;;;;;;;;;;10.65;100.00;100220.75;4496974;31;34932;-73
2022/11/07 12:22:51;;;;;;;;;;;;;;;11.08;100.00;100217.88;4509055;31;35240;-73
2022/11/07 12:25:51;;;;;;;;;;;;;;;10.76;100.00;100216.75;4510180;31;34873;-74
2022/11/07 12:29:08;;;;;;;;;;;;;;;10.73;100.00;100219.25;4499837;31;34043;-73
2022/11/07 12:32:02;;;;;;;;;;;;;;;10.90;100.00;100205.00;4443151;31;34632;-73
2022/11/07 12:34:56;;;;;;;;;;;;;;;10.97;100.00;100214.47;4510622;31;34935;-72
2022/11/07 12:37:59;;;;;;;;;;;;;;;11.38;100.00;100212.94;4509596;31;34360;-71
2022/11/07 12:40:45;;;;;;;;;;;;;;;11.48;100.00;100210.84;4512576;31;34085;-72
2022/11/07 12:43:43;;;;;;;;;;;;;;;10.68;100.00;100222.09;4500197;31;35675;-72
2022/11/07 12:46:35;;;;;;;;;;;;;;;11.29;100.00;100210.09;4496786;31;35168;-73
2022/11/07 12:49:38;;;;;;;;;;;;;;;11.64;100.00;100211.38;4510545;31;34634;-73
2022/11/07 12:52:33;;;;;;;;;;;;;;;11.35;100.00;100211.62;4510505;31;34894;-73
2022/11/07 12:55:24;;;;;;;;;;;;;;;11.31;100.00;100213.34;4499993;31;34788;-73
2022/11/07 12:58:26;;;;;;;;;;;;;;;11.35;100.00;100205.31;4500226;31;36282;-73
2022/11/07 13:01:14;;;;;;;;;;;;;;;11.30;100.00;100205.41;4487414;31;35387;-73
2022/11/07 13:04:10;;;;;;;;;;;;;;;11.98;100.00;100204.69;4491527;31;34578;-73
2022/11/07 13:07:16;;;;;;;8.43;3.37;;;;;;;11.63;100.00;100204.25;4499885;31;35451;-73
2022/11/07 13:10:37;;;;;;;11.07;3.62;;;;;;;11.27;100.00;100209.59;4511193;31;36025;-73
2022/11/07 13:13:46;;;;;;;7.68;3.47;;;;;;;11.78;100.00;100205.06;4507434;31;34552;-73
2022/11/07 13:16:48;;;;;;;7.90;3.22;;;;;;;11.54;100.00;100200.59;4509405;31;35016;-73
2022/11/07 13:19:39;;;;;;;8.40;3.70;;;;;;;12.30;100.00;100200.19;4499863;31;34334;-73
2022/11/07 13:22:34;;;;;;;7.12;3.20;;;;;;;12.37;100.00;100197.81;4505138;31;34950;-73
2022/11/07 13:25:32;;;;;;;7.97;3.30;;;;;;;12.73;100.00;100196.97;4509685;31;35374;-73
2022/11/07 13:28:43;;;;;;;9.32;2.92;;;;;;;12.20;100.00;100197.63;4499562;31;34052;-74
2022/11/07 13:31:37;;;;;;;7.43;2.80;;;;;;;12.66;100.00;100196.59;4502383;31;34289;-74
2022/11/07 13:34:25;;;;;;;7.03;2.70;;;;;;;11.99;100.00;100200.00;4499819;31;35965;-74
2022/11/07 13:37:26;;;;;;;5.22;2.50;;;;;;;13.02;100.00;100200.09;4513347;31;35227;-74
2022/11/07 13:40:29;;;;;;;6.37;2.50;;;;;;;12.99;100.00;100200.72;4489570;31;33616;-73
2022/11/07 13:43:16;;;;;;;6.10;2.60;;;;;;;12.83;99.17;100196.72;4493935;31;35625;-73
2022/11/07 13:46:20;;;;;;;4.87;1.90;;;;;;;12.48;100.00;100195.63;4493323;31;35957;-74
2022/11/07 13:49:17;;;;;;;6.12;2.45;;;;;;;12.64;99.19;100193.34;4490759;31;33416;-73
2022/11/07 13:52:38;;;;;;;5.65;2.60;;;;;;;13.22;97.25;100187.75;4487028;31;35052;-73
2022/11/07 13:55:44;;;;;;;5.37;2.67;;;;;;;13.02;98.54;100189.09;4495415;31;35696;-73
2022/11/07 13:58:34;;;;;;;3.75;2.15;;;;;;;12.95;97.10;100174.97;4488333;31;35898;-73
2022/11/07 14:01:22;;;;;;;5.07;2.58;;;;;;;13.21;96.39;100179.84;4495961;31;34267;-73
2022/11/07 14:04:21;;;;;;;4.80;2.03;;;;;;;13.05;97.36;100182.16;4496670;31;34104;-73
2022/11/07 14:07:14;;;;;;;3.87;1.75;;;;;;;13.13;95.40;100180.59;4495339;31;34793;-74
2022/11/07 14:10:39;;;;;;;4.25;2.10;;;;;;;13.01;94.75;100184.72;4496942;31;34970;-74
2022/11/07 14:13:35;;;;;;;5.10;2.45;;;;;;;13.10;97.50;100190.28;4498706;31;34657;-73
2022/11/07 14:16:31;;;;;;;5.07;1.90;;;;;;;13.14;96.50;100193.22;4494235;31;34018;-74
2022/11/07 14:19:25;;;;;;;5.22;2.10;;;;;;;13.33;96.40;100188.34;4493210;31;35697;-75
2022/11/07 14:22:27;;;;;;;3.97;1.85;;;;;;;13.07;98.21;100195.59;4493898;31;35058;-74
2022/11/07 14:25:22;;;;;;;4.15;2.00;;;;;;;13.12;96.32;100203.72;4493927;31;34833;-74
2022/11/07 14:28:15;;;;;;;4.97;2.00;;;;;;;12.82;98.17;100200.59;4491476;31;34124;-74
2022/11/07 14:31:06;;;;;;;4.65;1.90;;;;;;;13.32;96.03;100202.41;4491411;31;34687;-74
2022/11/07 14:34:07;;;;;;;4.78;2.37;;;;;;;13.47;93.70;100200.06;4488327;31;36435;-74
2022/11/07 14:37:02;;;;;;;6.40;2.33;;;;;;;13.75;90.99;100205.38;4490666;31;34596;-74